Time;durP1;ratioP1;P1;durP2;ratioP2;P2;SDS_P1;SDS_P2;PMS_P1;PMS_P2;Temp;Humidity;BMP_temperature;BMP_pressure;BME280_temperature;BME280_humidity;BME280_pressure;Samples;Min_cycle;Max_cycle;Signal;HPM_P1;HPM_P2
2021/10/31 00:01:29;;;;;;;3.75;2.72;;;15.50;74.70;;;;;;5052789;28;20083;-79
2021/10/31 00:03:55;;;;;;;4.05;2.70;;;15.40;74.60;;;;;;5053730;28;20017;-79
2021/10/31 00:06:21;;;;;;;4.18;2.90;;;15.50;74.70;;;;;;5052783;28;20465;-79
2021/10/31 00:08:47;;;;;;;3.65;2.65;;;15.50;74.70;;;;;;5054835;28;20043;-80
2021/10/31 00:11:14;;;;;;;4.22;3.00;;;15.40;74.60;;;;;;5052737;28;20033;-80
2021/10/31 00:13:40;;;;;;;3.28;2.55;;;15.40;74.70;;;;;;5053443;28;20029;-81
2021/10/31 00:16:05;;;;;;;3.95;2.78;;;15.40;74.70;;;;;;5036968;28;20472;-79
2021/10/31 00:18:31;;;;;;;4.45;3.28;;;15.40;74.70;;;;;;5052832;28;20464;-79
2021/10/31 00:20:57;;;;;;;4.35;3.00;;;15.40;74.70;;;;;;5052190;28;20055;-80
2021/10/31 00:23:26;;;;;;;5.07;3.10;;;15.40;74.70;;;;;;5052360;28;20029;-78
2021/10/31 00:25:53;;;;;;;4.38;2.75;;;15.40;74.70;;;;;;5052519;28;20025;-80
2021/10/31 00:28:19;;;;;;;3.03;2.47;;;15.30;74.70;;;;;;5052486;28;20033;-82
2021/10/31 00:30:44;;;;;;;3.63;2.72;;;15.30;74.70;;;;;;5053329;28;20124;-80
2021/10/31 00:33:10;;;;;;;4.22;2.88;;;15.30;74.70;;;;;;5052434;28;20416;-80
2021/10/31 00:35:36;;;;;;;4.00;2.72;;;15.30;74.70;;;;;;5053224;28;20036;-82
2021/10/31 00:38:03;;;;;;;4.43;3.15;;;15.30;74.70;;;;;;5052091;28;20020;-80
2021/10/31 00:40:29;;;;;;;4.32;2.92;;;15.20;74.70;;;;;;5052707;28;20040;-79
2021/10/31 00:42:55;;;;;;;3.85;2.70;;;15.30;75.40;;;;;;5052655;28;20045;-80
2021/10/31 00:45:22;;;;;;;3.85;2.58;;;15.20;74.70;;;;;;5052289;28;20033;-81
2021/10/31 00:47:48;;;;;;;4.55;2.90;;;15.20;74.70;;;;;;5053556;28;20120;-80
2021/10/31 00:50:13;;;;;;;3.50;2.65;;;15.20;74.70;;;;;;5052970;28;20475;-80
2021/10/31 00:52:41;;;;;;;3.80;2.60;;;15.20;75.40;;;;;;5051960;28;20037;-79
2021/10/31 00:55:07;;;;;;;3.70;2.50;;;15.20;74.70;;;;;;5053536;28;20068;-78
2021/10/31 00:57:36;;;;;;;3.25;2.63;;;15.20;74.70;;;;;;5052900;28;20037;-79
2021/10/31 01:00:05;;;;;;;3.75;2.50;;;15.20;74.80;;;;;;5052147;28;20033;-79
2021/10/31 01:02:31;;;;;;;3.97;2.63;;;15.10;74.70;;;;;;5052751;28;20045;-79
2021/10/31 01:05:01;;;;;;;3.95;2.83;;;15.10;74.70;;;;;;5052152;28;20052;-80
2021/10/31 01:07:26;;;;;;;3.85;2.80;;;15.10;74.70;;;;;;5068733;28;20112;-81
2021/10/31 01:10:11;;;;;;;3.97;3.10;;;15.10;74.70;;;;;;5051625;28;20092;-80
2021/10/31 01:13:19;;;;;;;3.07;2.47;;;15.10;74.70;;;;;;5052235;28;20037;-80
2021/10/31 01:16:12;;;;;;;4.07;2.60;;;15.00;74.80;;;;;;5052306;28;20029;-81
2021/10/31 01:18:53;;;;;;;3.95;2.63;;;15.00;74.70;;;;;;5052260;28;20053;-79
2021/10/31 01:21:56;;;;;;;3.03;2.53;;;15.00;74.80;;;;;;5051652;28;20049;-80
2021/10/31 01:25:10;;;;;;;3.55;2.50;;;14.90;74.90;;;;;;5052151;28;20055;-80
2021/10/31 01:27:51;;;;;;;3.10;2.40;;;14.90;74.90;;;;;;5006443;28;20492;-81
2021/10/31 01:30:36;;;;;;;3.40;2.47;;;14.90;74.80;;;;;;5052856;28;20052;-79
2021/10/31 01:33:20;;;;;;;3.70;2.30;;;14.90;74.90;;;;;;5051837;28;20484;-80
2021/10/31 01:35:55;;;;;;;3.88;2.22;;;14.90;74.90;;;;;;5054131;28;20282;-79
2021/10/31 01:38:46;;;;;;;3.22;2.58;;;14.90;74.80;;;;;;5056560;28;20045;-80
2021/10/31 01:41:14;;;;;;;3.47;2.42;;;14.80;74.90;;;;;;5055588;28;20064;-80
2021/10/31 01:44:00;;;;;;;3.97;2.72;;;14.90;74.90;;;;;;5055473;28;20039;-80
2021/10/31 01:46:44;;;;;;;4.20;2.53;;;14.80;74.90;;;;;;5056899;28;20031;-81
2021/10/31 01:49:47;;;;;;;4.45;2.78;;;14.80;74.90;;;;;;5055217;28;20109;-80
2021/10/31 01:52:22;;;;;;;3.45;2.50;;;14.80;74.90;;;;;;5056061;28;20044;-80
2021/10/31 01:55:01;;;;;;;3.80;2.38;;;14.70;74.80;;;;;;5055225;28;20025;-80
2021/10/31 01:57:29;;;;;;;3.65;2.67;;;14.70;74.90;;;;;;5054506;28;20035;-83
2021/10/31 02:00:13;;;;;;;4.28;2.70;;;14.70;74.80;;;;;;5054962;28;20473;-80
2021/10/31 02:02:42;;;;;;;3.67;2.63;;;14.70;74.90;;;;;;5055277;28;20033;-80
2021/10/31 02:05:10;;;;;;;3.30;2.60;;;14.70;74.80;;;;;;5054626;28;20018;-82
2021/10/31 02:07:39;;;;;;;3.83;2.70;;;14.60;74.80;;;;;;5056461;28;20384;-80
2021/10/31 02:10:06;;;;;;;4.30;2.60;;;14.60;74.80;;;;;;5056009;28;20025;-80
2021/10/31 02:12:34;;;;;;;4.32;2.97;;;14.70;74.90;;;;;;5054857;28;20025;-80
2021/10/31 02:15:00;;;;;;;3.50;2.72;;;14.60;74.80;;;;;;5071331;28;20033;-81
2021/10/31 02:17:28;;;;;;;3.00;2.33;;;14.60;74.80;;;;;;5055165;28;20055;-80
2021/10/31 02:19:55;;;;;;;3.30;2.42;;;14.60;74.80;;;;;;5054869;28;20372;-80
2021/10/31 02:22:28;;;;;;;3.45;2.55;;;14.60;74.90;;;;;;5054570;28;20048;-80
2021/10/31 02:24:54;;;;;;;4.05;2.83;;;14.60;74.90;;;;;;5054967;28;20033;-80
2021/10/31 02:27:24;;;;;;;3.75;2.58;;;14.60;74.90;;;;;;5038149;28;20067;-80
2021/10/31 02:29:53;;;;;;;3.50;2.55;;;14.50;74.80;;;;;;5055710;28;20040;-80
2021/10/31 02:32:22;;;;;;;3.33;2.33;;;14.50;74.80;;;;;;5055148;28;20021;-79
2021/10/31 02:34:49;;;;;;;3.75;2.55;;;14.50;74.90;;;;;;5054598;28;20128;-80
2021/10/31 02:37:15;;;;;;;3.78;2.88;;;14.50;74.90;;;;;;5054586;28;20025;-80
2021/10/31 02:39:41;;;;;;;3.30;2.33;;;14.50;74.90;;;;;;5054324;28;20038;-80
2021/10/31 02:42:07;;;;;;;3.88;2.70;;;14.50;74.90;;;;;;5055673;28;20076;-80
2021/10/31 02:44:33;;;;;;;3.83;2.58;;;14.50;74.90;;;;;;5054363;28;20037;-80
2021/10/31 02:46:59;;;;;;;4.22;2.30;;;14.40;74.90;;;;;;5070468;28;20108;-80
2021/10/31 02:49:28;;;;;;;3.92;2.78;;;14.40;74.90;;;;;;5054503;28;20474;-80
2021/10/31 02:52:15;;;;;;;3.63;2.58;;;14.40;74.90;;;;;;5054691;28;20086;-80
2021/10/31 02:54:54;;;;;;;3.13;2.13;;;14.40;75.00;;;;;;5054093;28;20032;-80
2021/10/31 02:57:30;;;;;;;3.92;2.67;;;14.40;74.90;;;;;;5054046;28;20036;-80
2021/10/31 03:00:04;;;;;;;3.55;2.42;;;14.40;75.00;;;;;;5054598;28;20028;-80
2021/10/31 03:02:31;;;;;;;3.33;2.60;;;14.30;74.90;;;;;;5053593;28;20040;-81
2021/10/31 03:04:58;;;;;;;3.08;2.17;;;14.40;75.00;;;;;;5053899;28;20060;-80
2021/10/31 03:07:24;;;;;;;3.25;2.42;;;14.40;75.00;;;;;;5037627;28;20060;-80
2021/10/31 03:09:50;;;;;;;3.05;2.30;;;14.30;74.90;;;;;;5054214;28;20021;-80
2021/10/31 03:12:18;;;;;;;3.30;2.30;;;14.30;75.00;;;;;;5070507;28;20146;-80
2021/10/31 03:14:44;;;;;;;4.30;2.65;;;14.30;75.00;;;;;;5053951;28;20461;-80
2021/10/31 03:17:10;;;;;;;4.07;2.40;;;14.30;75.00;;;;;;5054001;28;20029;-80
2021/10/31 03:19:37;;;;;;;3.10;2.25;;;14.30;75.00;;;;;;5054458;28;20373;-80
2021/10/31 03:22:05;;;;;;;2.88;2.10;;;14.30;75.00;;;;;;5053483;28;20489;-80
2021/10/31 03:24:30;;;;;;;3.63;2.53;;;14.30;75.10;;;;;;5053513;28;20029;-80
2021/10/31 03:26:56;;;;;;;3.50;2.47;;;14.30;75.00;;;;;;5053229;28;20029;-81
2021/10/31 03:29:24;;;;;;;2.85;2.33;;;14.30;75.00;;;;;;5070257;28;20032;-79
2021/10/31 03:31:51;;;;;;;3.28;2.33;;;14.30;75.10;;;;;;5053697;28;20025;-79
2021/10/31 03:34:17;;;;;;;4.07;2.65;;;14.20;75.00;;;;;;5053474;28;20021;-80
2021/10/31 03:36:43;;;;;;;3.75;2.40;;;14.20;75.00;;;;;;5036944;28;20037;-80
2021/10/31 03:39:09;;;;;;;4.35;2.60;;;14.20;75.10;;;;;;5069774;28;20107;-80
2021/10/31 03:41:35;;;;;;;3.38;2.47;;;14.20;75.10;;;;;;5053398;28;20499;-82
2021/10/31 03:44:02;;;;;;;4.13;2.58;;;14.20;75.10;;;;;;5053025;28;20037;-79
2021/10/31 03:46:27;;;;;;;3.03;2.38;;;14.20;75.10;;;;;;5053402;28;20124;-79
2021/10/31 03:48:53;;;;;;;2.40;2.00;;;14.20;75.10;;;;;;5019585;28;20059;-80
2021/10/31 03:51:19;;;;;;;3.95;2.60;;;14.10;75.00;;;;;;5052749;28;20060;-79
2021/10/31 03:53:45;;;;;;;3.38;2.60;;;14.10;75.10;;;;;;5052760;28;20028;-79
2021/10/31 03:56:11;;;;;;;3.00;2.30;;;14.10;75.00;;;;;;5036338;28;20090;-81
2021/10/31 03:58:36;;;;;;;3.40;2.58;;;14.10;75.10;;;;;;5052789;28;20406;-83
2021/10/31 04:01:02;;;;;;;3.58;2.45;;;14.10;75.10;;;;;;5052849;28;20025;-80
2021/10/31 04:03:28;;;;;;;3.92;2.25;;;14.10;75.10;;;;;;5053836;28;20025;-80
2021/10/31 04:05:54;;;;;;;2.45;1.90;;;14.10;75.10;;;;;;5052862;28;20029;-79
2021/10/31 04:08:20;;;;;;;3.45;2.55;;;14.10;75.10;;;;;;5052778;28;20487;-82
2021/10/31 04:10:45;;;;;;;3.25;2.35;;;14.10;75.10;;;;;;5036142;28;20033;-80
2021/10/31 04:13:11;;;;;;;3.58;2.63;;;14.10;75.20;;;;;;5052645;28;20025;-80
2021/10/31 04:15:37;;;;;;;4.13;2.80;;;14.10;75.10;;;;;;5053597;28;20032;-80
2021/10/31 04:18:03;;;;;;;4.00;2.90;;;14.00;75.20;;;;;;5052095;28;20025;-80
2021/10/31 04:20:29;;;;;;;3.85;2.53;;;14.00;75.10;;;;;;5052293;28;20029;-81
2021/10/31 04:22:55;;;;;;;3.70;2.70;;;14.00;75.20;;;;;;5035589;28;20118;-80
2021/10/31 04:25:21;;;;;;;3.72;2.45;;;14.00;75.20;;;;;;5052534;28;20110;-80
2021/10/31 04:27:46;;;;;;;3.63;2.67;;;14.00;75.20;;;;;;5068886;28;20460;-80
2021/10/31 04:30:13;;;;;;;2.95;2.17;;;14.00;75.20;;;;;;5052530;28;20446;-82
2021/10/31 04:32:39;;;;;;;3.45;2.40;;;14.00;75.20;;;;;;5052683;28;20028;-83
2021/10/31 04:35:06;;;;;;;3.17;2.47;;;14.00;75.20;;;;;;5054030;28;20132;-79
2021/10/31 04:37:36;;;;;;;4.50;2.63;;;14.00;75.20;;;;;;5052930;28;20036;-80
2021/10/31 04:40:05;;;;;;;3.17;2.47;;;14.00;75.30;;;;;;5053309;28;20029;-80
2021/10/31 04:42:32;;;;;;;3.42;2.55;;;14.00;75.30;;;;;;5052688;28;20036;-81
2021/10/31 04:44:58;;;;;;;3.20;2.38;;;14.00;75.30;;;;;;5052816;28;20040;-80
2021/10/31 04:47:24;;;;;;;3.45;2.30;;;14.00;75.30;;;;;;5052315;28;20061;-79
2021/10/31 04:49:50;;;;;;;3.88;2.55;;;14.00;75.30;;;;;;5052431;28;20040;-80
2021/10/31 04:52:16;;;;;;;4.10;2.50;;;14.00;75.30;;;;;;5051868;28;20468;-80
2021/10/31 04:54:42;;;;;;;3.38;2.70;;;13.90;75.30;;;;;;5069032;28;20029;-81
2021/10/31 04:57:08;;;;;;;3.78;2.75;;;13.90;75.20;;;;;;5035527;28;20056;-80
2021/10/31 04:59:34;;;;;;;3.63;2.33;;;13.90;75.20;;;;;;5053179;28;20021;-79
2021/10/31 05:02:00;;;;;;;3.72;2.53;;;13.90;75.20;;;;;;5035475;28;20095;-79
2021/10/31 05:04:26;;;;;;;3.95;2.72;;;13.90;75.30;;;;;;5052152;28;20033;-79
2021/10/31 05:06:51;;;;;;;3.88;2.72;;;13.90;75.30;;;;;;5053625;28;20021;-79
2021/10/31 05:09:17;;;;;;;4.38;2.72;;;13.90;75.30;;;;;;5052565;28;20082;-78
2021/10/31 05:11:44;;;;;;;4.05;2.70;;;13.90;75.30;;;;;;5056088;28;20104;-83
2021/10/31 05:14:09;;;;;;;4.47;2.88;;;13.90;75.30;;;;;;5056730;28;20365;-80
2021/10/31 05:16:37;;;;;;;3.92;2.60;;;13.90;75.30;;;;;;5039075;28;20021;-79
2021/10/31 05:19:08;;;;;;;4.28;2.80;;;13.90;75.30;;;;;;5056236;28;20465;-79
2021/10/31 05:21:34;;;;;;;3.72;2.78;;;13.90;75.30;;;;;;5072158;28;20057;-79
2021/10/31 05:24:00;;;;;;;3.95;2.72;;;13.80;75.20;;;;;;5055791;28;20040;-79
2021/10/31 05:26:26;;;;;;;4.55;2.67;;;13.80;75.30;;;;;;5057238;28;20033;-79
2021/10/31 05:28:53;;;;;;;4.60;3.30;;;13.80;75.30;;;;;;5055986;28;20021;-80
2021/10/31 05:31:20;;;;;;;3.67;2.78;;;13.80;75.30;;;;;;5055616;28;20456;-80
2021/10/31 05:33:47;;;;;;;4.05;2.80;;;13.80;75.30;;;;;;5056803;28;20021;-83
2021/10/31 05:36:12;;;;;;;4.40;2.92;;;13.80;75.90;;;;;;5039304;28;20033;-80
2021/10/31 05:38:38;;;;;;;4.28;2.67;;;13.80;75.30;;;;;;5055841;28;20382;-79
2021/10/31 05:41:04;;;;;;;4.55;3.10;;;13.80;75.30;;;;;;5055416;28;20060;-80
2021/10/31 05:43:30;;;;;;;4.43;3.25;;;13.70;75.30;;;;;;5071870;28;20059;-79
2021/10/31 05:45:57;;;;;;;4.68;3.03;;;13.70;75.30;;;;;;5055461;28;20029;-79
2021/10/31 05:48:24;;;;;;;4.40;3.20;;;13.80;75.40;;;;;;5055454;28;20025;-79
2021/10/31 05:50:53;;;;;;;3.42;2.60;;;13.80;75.40;;;;;;5056594;28;20025;-79
2021/10/31 05:53:20;;;;;;;3.72;2.85;;;13.70;75.30;;;;;;5055296;28;20028;-79
2021/10/31 05:55:45;;;;;;;4.15;2.97;;;13.70;75.30;;;;;;5055284;28;20481;-83
2021/10/31 05:58:11;;;;;;;4.25;3.10;;;13.70;75.30;;;;;;5056453;28;20029;-81
2021/10/31 06:00:37;;;;;;;4.90;3.42;;;13.70;75.30;;;;;;5055114;28;20075;-79
2021/10/31 06:03:03;;;;;;;4.15;3.05;;;13.70;75.30;;;;;;5071509;28;20064;-80
2021/10/31 06:05:29;;;;;;;4.85;3.15;;;13.70;75.30;;;;;;5055121;28;20031;-79
2021/10/31 06:07:55;;;;;;;5.35;3.38;;;13.70;75.30;;;;;;5055004;28;20124;-80
2021/10/31 06:10:20;;;;;;;4.32;3.30;;;13.60;75.30;;;;;;5054793;28;20507;-79
2021/10/31 06:12:48;;;;;;;3.70;2.95;;;13.70;75.40;;;;;;5054941;28;20132;-80
2021/10/31 06:15:17;;;;;;;4.50;3.17;;;13.60;75.30;;;;;;5071892;28;20040;-79
2021/10/31 06:17:42;;;;;;;4.38;3.47;;;13.60;75.30;;;;;;5054874;28;20461;-80
2021/10/31 06:20:11;;;;;;;5.18;3.70;;;13.60;75.40;;;;;;5055035;28;20027;-81
2021/10/31 06:22:37;;;;;;;4.55;3.17;;;13.60;75.40;;;;;;5053503;28;20477;-79
2021/10/31 06:25:05;;;;;;;4.93;3.38;;;13.60;75.40;;;;;;5054621;28;20116;-79
2021/10/31 06:27:31;;;;;;;4.70;3.05;;;13.60;75.40;;;;;;5054955;28;20473;-79
2021/10/31 06:29:57;;;;;;;4.50;3.05;;;13.50;75.40;;;;;;5054459;28;20048;-79
2021/10/31 06:32:23;;;;;;;4.53;3.03;;;13.60;75.40;;;;;;5054542;28;20037;-83
2021/10/31 06:34:48;;;;;;;4.20;3.03;;;13.60;75.40;;;;;;5054506;28;20036;-82
2021/10/31 06:37:14;;;;;;;5.25;3.45;;;13.50;75.40;;;;;;5055309;28;20029;-80
2021/10/31 06:39:40;;;;;;;4.82;3.45;;;13.50;75.40;;;;;;5054469;28;20064;-80
2021/10/31 06:42:06;;;;;;;4.78;3.25;;;13.50;75.40;;;;;;5055117;28;20029;-79
2021/10/31 06:44:31;;;;;;;5.30;3.38;;;13.50;75.40;;;;;;5037847;28;20048;-82
2021/10/31 06:46:57;;;;;;;4.20;3.47;;;13.50;75.50;;;;;;5054593;28;20043;-79
2021/10/31 06:49:23;;;;;;;4.07;3.15;;;13.50;75.50;;;;;;5054978;28;20040;-79
2021/10/31 06:51:49;;;;;;;4.57;3.25;;;13.50;75.50;;;;;;5054289;28;20043;-80
2021/10/31 06:54:15;;;;;;;4.85;3.72;;;13.50;75.50;;;;;;5054457;28;20025;-79
2021/10/31 06:56:41;;;;;;;4.13;3.17;;;13.50;75.50;;;;;;5070649;28;20037;-79
2021/10/31 06:59:07;;;;;;;4.63;3.55;;;13.50;75.60;;;;;;5053989;28;20025;-79
2021/10/31 07:01:33;;;;;;;4.85;3.80;;;13.50;75.50;;;;;;5054018;28;20037;-79
2021/10/31 07:03:59;;;;;;;4.13;3.17;;;13.50;75.60;;;;;;5053825;28;20025;-80
2021/10/31 07:06:24;;;;;;;5.45;3.65;;;13.40;75.50;;;;;;5053768;28;20032;-80
2021/10/31 07:08:50;;;;;;;5.07;3.60;;;13.50;75.60;;;;;;5054166;28;20032;-79
2021/10/31 07:11:16;;;;;;;4.70;3.63;;;13.50;75.60;;;;;;5053739;28;20485;-78
2021/10/31 07:13:42;;;;;;;4.80;3.83;;;13.50;75.70;;;;;;5054594;28;20377;-79
2021/10/31 07:16:07;;;;;;;4.75;3.63;;;13.40;75.60;;;;;;5053776;28;20043;-80
2021/10/31 07:18:33;;;;;;;5.60;3.70;;;13.50;75.70;;;;;;5070046;28;20112;-78
2021/10/31 07:21:00;;;;;;;5.28;3.90;;;13.40;75.60;;;;;;5053316;28;20056;-79
2021/10/31 07:23:25;;;;;;;4.70;3.38;;;13.40;75.70;;;;;;5054156;28;20449;-81
2021/10/31 07:25:51;;;;;;;5.25;3.75;;;13.40;75.80;;;;;;5054023;28;20120;-79
2021/10/31 07:28:18;;;;;;;5.25;3.72;;;13.40;75.70;;;;;;5053491;28;20048;-79
2021/10/31 07:30:44;;;;;;;5.15;3.97;;;13.40;75.70;;;;;;5053983;28;20057;-80
2021/10/31 07:33:13;;;;;;;4.63;3.67;;;13.50;75.70;;;;;;5052906;28;20133;-80
2021/10/31 07:35:39;;;;;;;4.68;3.60;;;13.40;75.70;;;;;;5069736;28;20033;-80
2021/10/31 07:38:05;;;;;;;5.05;3.58;;;13.40;75.70;;;;;;5053897;28;20093;-80
2021/10/31 07:40:30;;;;;;;5.53;3.58;;;13.40;75.70;;;;;;5053064;28;20033;-79
2021/10/31 07:42:56;;;;;;;4.63;3.40;;;13.40;75.70;;;;;;5053346;28;20037;-80
2021/10/31 07:45:22;;;;;;;4.40;3.20;;;13.50;75.80;;;;;;5052959;28;20048;-81
2021/10/31 07:47:48;;;;;;;4.75;3.67;;;13.40;75.70;;;;;;5053885;28;20432;-80
2021/10/31 07:50:14;;;;;;;4.47;3.55;;;13.40;75.70;;;;;;5053131;28;20029;-79
2021/10/31 07:52:43;;;;;;;4.85;3.35;;;13.40;75.70;;;;;;5053225;28;20033;-79
2021/10/31 07:55:14;;;;;;;4.95;3.35;;;13.40;75.80;;;;;;5037736;28;20355;-80
2021/10/31 07:57:40;;;;;;;4.05;3.30;;;13.40;75.80;;;;;;5036604;28;20083;-79
2021/10/31 08:00:06;;;;;;;4.95;3.55;;;13.40;75.80;;;;;;5054245;28;20025;-80
2021/10/31 08:02:38;;;;;;;4.97;3.90;;;13.40;75.80;;;;;;5053645;28;20090;-79
2021/10/31 08:05:04;;;;;;;5.47;3.70;;;13.40;75.80;;;;;;5053479;28;20471;-80
2021/10/31 08:07:30;;;;;;;4.65;3.45;;;13.40;75.80;;;;;;5052664;28;20025;-81
2021/10/31 08:09:58;;;;;;;4.22;3.35;;;13.40;75.80;;;;;;5036304;28;20461;-80
2021/10/31 08:12:25;;;;;;;4.07;3.35;;;13.40;75.80;;;;;;5052636;28;20025;-80
2021/10/31 08:14:51;;;;;;;4.40;3.30;;;13.40;75.80;;;;;;5069468;28;20040;-80
2021/10/31 08:17:17;;;;;;;4.68;3.65;;;13.50;75.90;;;;;;5052173;28;20021;-81
2021/10/31 08:19:43;;;;;;;4.68;3.28;;;13.40;75.90;;;;;;5069007;28;20037;-80
2021/10/31 08:22:09;;;;;;;5.05;3.55;;;13.40;75.90;;;;;;5035689;28;20053;-81
2021/10/31 08:24:35;;;;;;;4.40;3.33;;;13.40;75.90;;;;;;5052642;28;20424;-80
2021/10/31 08:27:01;;;;;;;4.07;3.13;;;13.50;76.00;;;;;;5052804;28;20473;-81
2021/10/31 08:29:27;;;;;;;4.55;3.58;;;13.50;76.00;;;;;;5052906;28;20032;-80
2021/10/31 08:31:55;;;;;;;4.50;3.35;;;13.50;76.00;;;;;;5052475;28;20033;-79
2021/10/31 08:34:22;;;;;;;4.93;3.70;;;13.40;75.90;;;;;;5052397;28;20036;-78
2021/10/31 08:36:48;;;;;;;4.95;3.08;;;13.40;76.00;;;;;;5068474;28;20029;-81
2021/10/31 08:39:14;;;;;;;4.00;3.03;;;13.50;76.00;;;;;;5052947;28;20449;-79
2021/10/31 08:41:40;;;;;;;4.57;3.30;;;13.50;76.70;;;;;;5052414;28;20033;-79
2021/10/31 08:44:06;;;;;;;4.22;3.20;;;13.50;76.10;;;;;;5051814;28;20090;-79
2021/10/31 08:46:33;;;;;;;4.10;3.05;;;13.50;76.10;;;;;;5052113;28;20029;-80
2021/10/31 08:49:00;;;;;;;3.47;2.90;;;13.50;76.10;;;;;;5068848;28;20033;-79
2021/10/31 08:51:26;;;;;;;3.53;2.83;;;13.50;76.10;;;;;;5068876;28;20032;-79
2021/10/31 08:53:53;;;;;;;3.90;3.05;;;13.60;76.20;;;;;;5053679;28;20029;-77
2021/10/31 08:56:24;;;;;;;3.78;2.95;;;13.60;76.20;;;;;;5053663;28;20465;-79
2021/10/31 08:58:50;;;;;;;3.90;3.00;;;13.50;76.10;;;;;;5053199;28;20457;-81
2021/10/31 09:01:16;;;;;;;4.22;2.78;;;13.60;76.20;;;;;;5052019;28;20086;-77
2021/10/31 09:03:42;;;;;;;3.72;2.85;;;13.60;76.20;;;;;;5051580;28;20106;-78
2021/10/31 09:06:09;;;;;;;3.75;3.00;;;13.60;76.30;;;;;;5051926;28;20026;-78
2021/10/31 09:08:35;;;;;;;3.42;2.72;;;13.60;76.20;;;;;;5068709;28;20025;-79
2021/10/31 09:11:01;;;;;;;3.70;3.10;;;13.60;76.30;;;;;;5052170;28;20112;-80
2021/10/31 09:13:27;;;;;;;3.67;2.63;;;13.70;76.30;;;;;;5035382;28;20033;-80
2021/10/31 09:15:53;;;;;;;3.95;3.08;;;13.70;76.30;;;;;;5052276;28;20470;-81
2021/10/31 09:18:19;;;;;;;4.00;3.08;;;13.70;76.30;;;;;;5035535;28;20095;-79
2021/10/31 09:20:45;;;;;;;3.47;2.72;;;13.70;76.30;;;;;;5052885;28;20060;-81
2021/10/31 09:23:13;;;;;;;3.67;2.90;;;13.70;76.30;;;;;;5052110;28;20051;-80
2021/10/31 09:25:39;;;;;;;3.85;3.00;;;13.70;76.30;;;;;;5052068;28;20021;-82
2021/10/31 09:28:06;;;;;;;3.60;2.70;;;13.70;76.30;;;;;;5035818;28;20037;-82
2021/10/31 09:30:38;;;;;;;3.72;2.90;;;13.70;76.30;;;;;;5036024;28;20039;-81
2021/10/31 09:33:05;;;;;;;3.50;2.70;;;13.80;76.30;;;;;;5068601;28;20078;-79
2021/10/31 09:35:35;;;;;;;3.75;2.75;;;13.80;76.30;;;;;;5051957;28;20509;-80
2021/10/31 09:38:04;;;;;;;3.55;2.45;;;13.80;76.30;;;;;;5052003;28;20036;-82
2021/10/31 09:40:32;;;;;;;4.22;2.55;;;13.80;76.30;;;;;;5051811;28;20021;-79
2021/10/31 09:43:00;;;;;;;4.10;2.80;;;13.90;76.40;;;;;;5052395;28;20037;-80
2021/10/31 09:45:27;;;;;;;3.70;2.75;;;13.90;76.30;;;;;;5051840;28;20026;-80
2021/10/31 09:47:58;;;;;;;3.80;2.85;;;13.90;76.30;;;;;;5052079;28;20056;-80
2021/10/31 09:50:25;;;;;;;3.67;2.78;;;13.90;76.40;;;;;;5052642;28;20029;-81
2021/10/31 09:52:52;;;;;;;3.05;2.65;;;13.90;76.30;;;;;;5034944;28;20044;-79
2021/10/31 09:55:18;;;;;;;2.92;2.58;;;14.00;76.30;;;;;;5051201;28;20083;-80
2021/10/31 09:57:44;;;;;;;4.13;2.85;;;14.00;76.30;;;;;;5070466;28;20075;-80
2021/10/31 10:00:10;;;;;;;3.28;2.60;;;14.00;76.30;;;;;;5055385;28;20032;-80
2021/10/31 10:05:21;;;;;;;3.75;2.80;;;14.10;76.40;;;;;;5055515;28;20040;-81
2021/10/31 10:08:07;;;;;;;3.83;2.60;;;14.10;76.40;;;;;;5055576;28;20033;-81
2021/10/31 10:10:51;;;;;;;2.90;2.17;;;14.10;76.40;;;;;;5055084;28;20120;-78
2021/10/31 10:13:24;;;;;;;3.53;2.47;;;14.10;76.50;;;;;;5054854;28;20033;-79
2021/10/31 10:15:51;;;;;;;3.05;2.25;;;14.10;76.40;;;;;;5055159;28;20025;-84
2021/10/31 10:18:32;;;;;;;3.13;2.47;;;14.10;76.50;;;;;;5055801;28;20028;-84
2021/10/31 10:21:25;;;;;;;3.28;2.40;;;14.20;76.80;;;;;;5055305;28;20045;-79
2021/10/31 10:23:53;;;;;;;3.28;2.40;;;14.20;76.90;;;;;;5055216;28;20143;-78
2021/10/31 10:26:37;;;;;;;2.80;2.20;;;14.20;76.70;;;;;;5054844;28;20028;-79
2021/10/31 10:29:17;;;;;;;3.15;2.28;;;14.20;76.80;;;;;;5071286;28;20100;-77
2021/10/31 10:31:48;;;;;;;2.92;2.30;;;14.30;76.80;;;;;;5054491;28;20033;-79
2021/10/31 10:34:15;;;;;;;3.10;2.20;;;14.30;76.70;;;;;;5055704;28;20032;-79
2021/10/31 10:36:46;;;;;;;2.90;2.33;;;14.30;76.70;;;;;;5055740;28;20120;-77
2021/10/31 10:39:19;;;;;;;3.35;2.30;;;14.30;76.80;;;;;;5071014;28;20112;-78
2021/10/31 10:41:53;;;;;;;2.20;1.95;;;14.40;76.80;;;;;;5054341;28;20037;-77
2021/10/31 10:44:23;;;;;;;2.20;1.92;;;14.40;76.80;;;;;;5054495;28;20401;-78
2021/10/31 10:47:04;;;;;;;3.15;2.50;;;14.40;76.70;;;;;;5055176;28;20361;-78
2021/10/31 10:49:34;;;;;;;3.10;2.13;;;14.40;76.80;;;;;;5054573;28;20033;-77
2021/10/31 10:52:41;;;;;;;3.15;2.25;;;14.40;76.70;;;;;;5054477;28;20366;-78
2021/10/31 10:55:15;;;;;;;3.05;2.08;;;14.50;76.90;;;;;;5054972;28;20025;-81
2021/10/31 10:57:51;;;;;;;2.38;1.90;;;14.50;76.80;;;;;;5054127;28;20149;-78
2021/10/31 11:00:22;;;;;;;2.17;1.85;;;14.50;76.80;;;;;;5054271;28;20043;-77
2021/10/31 11:03:07;;;;;;;2.78;2.00;;;14.50;77.40;;;;;;5053864;28;20047;-77
2021/10/31 11:05:45;;;;;;;1.92;1.73;;;14.60;76.90;;;;;;5070390;28;20492;-79
2021/10/31 11:08:13;;;;;;;2.30;1.88;;;14.60;76.80;;;;;;5037749;28;20037;-79
2021/10/31 11:10:54;;;;;;;2.53;2.08;;;14.60;76.70;;;;;;5053395;28;20106;-78
2021/10/31 11:13:21;;;;;;;2.65;2.20;;;14.60;76.90;;;;;;5070191;28;20500;-79
2021/10/31 11:15:47;;;;;;;1.88;1.67;;;14.60;76.70;;;;;;5053561;28;20025;-79
2021/10/31 11:18:13;;;;;;;2.00;1.80;;;14.70;76.80;;;;;;5053644;28;20375;-79
2021/10/31 11:20:42;;;;;;;2.03;1.83;;;14.70;76.80;;;;;;5053710;28;20078;-79
2021/10/31 11:23:10;;;;;;;2.42;1.90;;;14.70;76.80;;;;;;5054329;28;20072;-79
2021/10/31 11:25:40;;;;;;;1.80;1.42;;;14.80;76.80;;;;;;5053075;28;20090;-78
2021/10/31 11:28:12;;;;;;;1.75;1.48;;;14.80;76.80;;;;;;5054464;28;20059;-78
2021/10/31 11:30:39;;;;;;;2.78;1.75;;;14.80;76.80;;;;;;5053617;28;20029;-78
2021/10/31 11:33:08;;;;;;;1.80;1.48;;;14.90;76.80;;;;;;5053603;28;20461;-77
2021/10/31 11:35:35;;;;;;;2.45;1.70;;;14.90;76.80;;;;;;5054496;28;20461;-81
2021/10/31 11:38:20;;;;;;;2.42;1.70;;;14.90;76.80;;;;;;5054741;28;20608;-78
2021/10/31 11:40:58;;;;;;;1.77;1.60;;;14.90;76.80;;;;;;5070133;28;20040;-78
2021/10/31 11:43:30;;;;;;;2.35;1.60;;;15.00;76.80;;;;;;5053561;28;20037;-79
2021/10/31 11:45:57;;;;;;;1.80;1.60;;;15.00;76.80;;;;;;5054160;28;20033;-78
2021/10/31 11:48:24;;;;;;;1.90;1.70;;;15.00;76.80;;;;;;5054108;28;20147;-79
2021/10/31 11:50:59;;;;;;;2.55;1.75;;;15.00;76.80;;;;;;5053144;28;20484;-80
2021/10/31 11:53:33;;;;;;;2.13;1.70;;;15.10;76.90;;;;;;5053051;28;20110;-81
2021/10/31 11:56:07;;;;;;;2.20;1.70;;;15.10;76.80;;;;;;5037685;28;20033;-79
2021/10/31 11:58:53;;;;;;;1.80;1.55;;;15.10;76.80;;;;;;5053144;28;20116;-79
2021/10/31 12:01:32;;;;;;;2.00;1.60;;;15.10;76.70;;;;;;5053100;28;20033;-80
2021/10/31 12:04:00;;;;;;;1.73;1.55;;;15.20;76.80;;;;;;5052896;28;20082;-80
2021/10/31 12:06:25;;;;;;;1.88;1.52;;;15.20;76.70;;;;;;5036448;28;20025;-80
2021/10/31 12:08:57;;;;;;;2.55;1.38;;;15.20;76.70;;;;;;5053014;28;20029;-81
2021/10/31 12:11:32;;;;;;;1.85;1.65;;;15.20;76.70;;;;;;5053235;28;20028;-79
2021/10/31 12:14:09;;;;;;;2.05;1.65;;;15.30;76.80;;;;;;5052807;28;20155;-79
2021/10/31 12:16:54;;;;;;;2.35;2.08;;;15.30;76.70;;;;;;5053338;28;20025;-79
2021/10/31 12:19:32;;;;;;;1.67;1.58;;;15.40;76.80;;;;;;5052165;28;20413;-79
2021/10/31 12:22:16;;;;;;;2.10;1.58;;;15.40;76.70;;;;;;5052593;28;20057;-78
2021/10/31 12:24:57;;;;;;;1.60;1.45;;;15.40;76.80;;;;;;5053598;28;20512;-79
2021/10/31 12:27:25;;;;;;;1.88;1.58;;;15.40;76.90;;;;;;5036729;28;20037;-79
2021/10/31 12:30:21;;;;;;;1.88;1.60;;;15.40;76.70;;;;;;5052498;28;20033;-80
2021/10/31 12:33:01;;;;;;;1.80;1.50;;;15.50;77.00;;;;;;5052439;28;20033;-80
2021/10/31 12:35:44;;;;;;;1.60;1.50;;;15.50;76.80;;;;;;5052801;28;20025;-78
2021/10/31 12:38:16;;;;;;;1.27;1.15;;;15.50;76.90;;;;;;5052859;28;20025;-79
2021/10/31 12:41:05;;;;;;;1.88;1.60;;;15.60;76.80;;;;;;5054270;28;20086;-78
2021/10/31 12:43:46;;;;;;;2.10;1.48;;;15.60;76.80;;;;;;5053395;28;20068;-78
2021/10/31 12:46:43;;;;;;;1.85;1.38;;;15.60;76.80;;;;;;5052762;28;20036;-79
2021/10/31 12:49:19;;;;;;;1.92;1.58;;;15.60;76.80;;;;;;5045729;28;20052;-80
2021/10/31 12:52:10;;;;;;;2.17;1.50;;;15.70;76.70;;;;;;5068921;28;20033;-78
2021/10/31 12:54:37;;;;;;;2.97;1.55;;;15.70;76.60;;;;;;5067688;28;20033;-79
2021/10/31 12:57:11;;;;;;;1.60;1.50;;;15.80;76.60;;;;;;5052912;28;20461;-78
2021/10/31 12:59:48;;;;;;;1.50;1.40;;;15.80;76.70;;;;;;5052499;28;20025;-79
2021/10/31 13:02:15;;;;;;;1.50;1.40;;;15.80;76.60;;;;;;5052807;28;20424;-78
2021/10/31 13:04:52;;;;;;;1.50;1.40;;;15.80;76.40;;;;;;5053257;28;20041;-79